Manor Ridge, Pennsylvania
Current Conditions -  °F | °C
As of 7:53 AM on Saturday 20 Dec 2014 (Local Time) from KLNS Reporting Station
Overcast Overcast  
Wind Chill: 25°   Ceiling: 2900
Heat Index: 30°   Visibility: 10mi
Dew Point: 19°   Wind: 5mph
Humidity: 64%   Direction: 300°WNW
Pressure: 30.29"   Gusts: NA
Location:  40.0115°N, 76.3553°W
Report Text: KLNS 201253Z 30004KT 10SM OVC029 M01/M07 A3029 RMK AO2 PRESRR SLP262 T10111072
Loading
Personal Weather Stations






























Interactive Weather Map New forecast layout! Learn more

10-Day Weather Forecast

Advertisements
Track Severe Weather on mobile